createdAt,value
2022-09-23T00:01:21.075Z,4.54
2022-09-23T00:06:26.033Z,4.57
2022-09-23T00:11:31.408Z,4.63
2022-09-23T00:16:36.954Z,4.66
2022-09-23T00:21:40.856Z,4.61
2022-09-23T00:26:46.087Z,4.54
2022-09-23T00:31:50.024Z,4.40
2022-09-23T00:36:53.903Z,4.35
2022-09-23T00:41:59.140Z,4.13
2022-09-23T00:47:03.110Z,4.10
2022-09-23T00:52:12.502Z,4.18
2022-09-23T00:57:20.045Z,4.21
2022-09-23T01:02:24.063Z,4.13
2022-09-23T01:07:27.956Z,4.14
2022-09-23T01:12:47.949Z,3.97
2022-09-23T01:18:02.603Z,3.87
2022-09-23T01:23:23.566Z,3.75
2022-09-23T01:28:49.940Z,3.61
2022-09-23T01:34:01.618Z,3.55
2022-09-23T01:39:11.756Z,3.39
2022-09-23T01:44:21.130Z,3.53
2022-09-23T01:49:31.089Z,3.48
2022-09-23T01:54:41.029Z,3.56
2022-09-23T01:59:50.574Z,3.43
2022-09-23T02:05:02.346Z,3.48
2022-09-23T02:10:12.342Z,3.27
2022-09-23T02:15:20.335Z,3.17
2022-09-23T02:20:29.808Z,3.10
2022-09-23T02:25:51.389Z,3.24
2022-09-23T02:31:03.124Z,3.24
2022-09-23T02:36:14.639Z,3.16
2022-09-23T02:41:27.585Z,3.18
2022-09-23T02:46:31.965Z,3.10
2022-09-23T02:51:38.268Z,3.02
2022-09-23T02:56:43.033Z,3.05
2022-09-23T03:02:01.031Z,3.15
2022-09-23T03:07:13.884Z,3.24
2022-09-23T03:12:31.855Z,3.35
2022-09-23T03:17:39.975Z,3.28
2022-09-23T03:22:48.593Z,3.39
2022-09-23T03:27:58.319Z,3.47
2022-09-23T03:33:04.557Z,3.36
2022-09-23T03:38:16.284Z,3.31
2022-09-23T03:43:20.284Z,3.39
2022-09-23T03:48:24.704Z,3.45
2022-09-23T03:53:29.949Z,3.45
2022-09-23T03:58:33.932Z,3.11
2022-09-23T04:03:37.829Z,2.87
2022-09-23T04:08:43.049Z,2.81
2022-09-23T04:13:47.124Z,2.78
2022-09-23T04:18:51.113Z,2.92
2022-09-23T04:23:56.315Z,2.92
2022-09-23T04:29:00.532Z,3.21
2022-09-23T04:34:04.663Z,3.39
2022-09-23T04:39:09.949Z,3.45
2022-09-23T04:44:14.561Z,3.54
2022-09-23T04:49:18.522Z,3.63
2022-09-23T04:54:23.735Z,3.81
2022-09-23T04:59:27.582Z,3.91
2022-09-23T05:04:32.443Z,4.09
2022-09-23T05:09:37.689Z,4.04
2022-09-23T05:14:41.532Z,4.37
2022-09-23T05:19:46.966Z,4.50
2022-09-23T05:24:52.166Z,4.59
2022-09-23T05:29:56.037Z,4.95
2022-09-23T05:34:59.839Z,5.57
2022-09-23T05:40:05.936Z,6.47
2022-09-23T05:45:10.494Z,6.83
2022-09-23T05:50:14.455Z,7.01
2022-09-23T05:55:19.766Z,7.02
2022-09-23T06:00:23.636Z,6.92
2022-09-23T06:05:27.512Z,6.91
2022-09-23T06:10:37.015Z,7.01
2022-09-23T06:15:41.184Z,6.87
2022-09-23T06:20:45.052Z,7.54
2022-09-23T06:25:50.291Z,7.37
2022-09-23T06:30:58.583Z,7.39
2022-09-23T06:40:17.406Z,7.20
2022-09-23T06:45:22.265Z,7.25
2022-09-23T06:50:27.265Z,7.42
2022-09-23T06:55:33.100Z,7.72
2022-09-23T07:00:37.304Z,8.68
2022-09-23T07:05:41.156Z,8.79
2022-09-23T07:10:52.582Z,10.48
2022-09-23T07:15:58.531Z,8.99
2022-09-23T07:21:07.594Z,8.63
2022-09-23T07:26:13.162Z,9.73
2022-09-23T07:31:29.848Z,9.62
2022-09-23T07:36:40.962Z,10.73
2022-09-23T07:41:46.467Z,11.43
2022-09-23T07:46:50.620Z,11.30
2022-09-23T07:51:55.045Z,12.51
2022-09-23T07:57:00.830Z,13.19
2022-09-23T08:02:04.954Z,12.34
2022-09-23T08:07:09.183Z,13.28
2022-09-23T08:12:17.165Z,13.81
2022-09-23T08:17:21.056Z,13.40
2022-09-23T08:22:24.964Z,12.89
2022-09-23T08:27:32.318Z,13.17
2022-09-23T08:32:36.224Z,13.42
2022-09-23T08:37:40.312Z,12.63
2022-09-23T08:42:47.455Z,13.65
2022-09-23T08:47:57.850Z,14.86
2022-09-23T08:53:06.155Z,14.96
2022-09-23T08:58:29.010Z,15.21
2022-09-23T09:03:41.733Z,15.48
2022-09-23T09:08:48.253Z,15.86
2022-09-23T09:14:01.211Z,16.31
2022-09-23T09:19:17.164Z,16.11
2022-09-23T09:24:30.753Z,17.41
2022-09-23T09:29:41.503Z,16.81
2022-09-23T09:34:54.751Z,16.88
2022-09-23T09:39:58.715Z,17.30
2022-09-23T09:45:13.219Z,19.00
2022-09-23T09:50:21.728Z,16.46
2022-09-23T09:55:27.795Z,16.86
2022-09-23T10:00:44.225Z,17.86
2022-09-23T10:05:50.120Z,17.72
2022-09-23T10:11:01.525Z,17.48
2022-09-23T10:16:07.461Z,16.55
2022-09-23T10:21:14.483Z,18.73
2022-09-23T10:26:18.851Z,19.68
2022-09-23T10:31:26.867Z,19.77
2022-09-23T10:36:32.343Z,19.12
2022-09-23T10:42:03.620Z,19.98
2022-09-23T10:47:23.215Z,19.63
2022-09-23T10:52:45.432Z,19.52
2022-09-23T10:58:07.567Z,20.45
2022-09-23T11:03:36.149Z,19.37
2022-09-23T11:09:05.030Z,20.76
2022-09-23T11:14:25.554Z,20.66
2022-09-23T11:19:52.249Z,20.62
2022-09-23T11:25:31.685Z,21.60
2022-09-23T11:30:45.365Z,20.58
2022-09-23T11:35:55.920Z,18.71
2022-09-23T11:41:05.288Z,18.64
2022-09-23T11:46:25.021Z,19.91
2022-09-23T11:51:34.724Z,19.89
2022-09-23T11:56:47.048Z,19.39
2022-09-23T12:01:59.266Z,17.06
2022-09-23T12:07:13.715Z,16.82
2022-09-23T12:18:22.992Z,19.40
2022-09-23T12:23:44.596Z,16.97
2022-09-23T12:28:51.581Z,18.54
2022-09-23T12:33:57.439Z,18.99
2022-09-23T12:39:05.359Z,18.92
2022-09-23T12:44:29.550Z,18.13
2022-09-23T12:49:38.132Z,17.93
2022-09-23T12:54:45.001Z,16.93
2022-09-23T12:59:58.244Z,16.78
2022-09-23T13:05:35.121Z,17.72
2022-09-23T13:10:50.037Z,16.23
2022-09-23T13:15:55.124Z,16.76
2022-09-23T13:20:59.035Z,16.11
2022-09-23T13:26:13.084Z,15.41
2022-09-23T13:31:21.251Z,15.23
2022-09-23T13:36:25.229Z,15.42
2022-09-23T13:41:30.551Z,15.76
2022-09-23T13:46:43.185Z,15.43
2022-09-23T13:51:47.108Z,15.42
2022-09-23T13:56:52.388Z,15.07
2022-09-23T14:02:08.242Z,14.83
2022-09-23T14:07:16.036Z,14.75
2022-09-23T14:12:23.040Z,14.60
2022-09-23T14:17:26.980Z,14.08
2022-09-23T14:22:31.578Z,14.05
2022-09-23T14:27:37.464Z,14.11
2022-09-23T14:32:41.867Z,13.97
2022-09-23T14:38:05.827Z,13.81
2022-09-23T14:43:18.497Z,13.78
2022-09-23T14:48:25.776Z,13.21
2022-09-23T14:53:38.846Z,12.89
2022-09-23T14:58:52.010Z,12.90
2022-09-23T15:03:59.391Z,12.92
2022-09-23T15:09:07.137Z,12.68
2022-09-23T15:14:36.172Z,12.83
2022-09-23T15:19:38.118Z,12.69
2022-09-23T15:24:46.407Z,12.49
2022-09-23T15:29:54.106Z,12.48
2022-09-23T15:34:58.011Z,12.22
2022-09-23T15:40:02.212Z,11.70
2022-09-23T15:45:12.244Z,11.57
2022-09-23T15:50:16.955Z,11.30
2022-09-23T15:55:23.577Z,11.22
2022-09-23T16:00:28.943Z,10.99
2022-09-23T16:05:39.722Z,10.77
2022-09-23T16:10:44.153Z,10.54
2022-09-23T16:15:49.442Z,10.45
2022-09-23T16:20:54.307Z,10.13
2022-09-23T16:25:58.325Z,9.82
2022-09-23T16:31:03.641Z,9.47
2022-09-23T16:36:13.520Z,9.23
2022-09-23T16:41:17.460Z,9.19
2022-09-23T16:46:24.036Z,8.82
2022-09-23T16:51:30.893Z,8.58
2022-09-23T16:56:35.449Z,8.30
2022-09-23T17:01:58.307Z,7.97
2022-09-23T17:07:02.774Z,7.99
2022-09-23T17:12:13.232Z,7.72
2022-09-23T17:17:19.020Z,7.63
2022-09-23T17:22:22.889Z,7.50
2022-09-23T17:27:26.756Z,7.40
2022-09-23T17:32:32.948Z,7.35
2022-09-23T17:37:37.086Z,7.27
2022-09-23T17:42:42.339Z,7.14
2022-09-23T17:47:54.862Z,7.07
2022-09-23T17:53:00.449Z,6.95
2022-09-23T17:58:04.364Z,7.08
2022-09-23T18:03:09.641Z,6.90
2022-09-23T18:08:13.529Z,6.84
2022-09-23T18:13:17.415Z,6.72
2022-09-23T18:18:22.659Z,6.73
2022-09-23T18:23:26.622Z,6.67
2022-09-23T18:28:34.612Z,6.80
2022-09-23T18:33:40.977Z,6.92
2022-09-23T18:38:47.040Z,7.20
2022-09-23T18:43:51.069Z,7.58
2022-09-23T18:49:14.379Z,7.55
2022-09-23T18:54:19.444Z,7.57
2022-09-23T18:59:26.254Z,7.56
2022-09-23T19:04:31.775Z,7.42
2022-09-23T19:09:35.680Z,7.38
2022-09-23T19:14:39.598Z,7.43
2022-09-23T19:19:45.937Z,7.33
2022-09-23T19:24:49.752Z,7.36
2022-09-23T19:29:53.612Z,7.39
2022-09-23T19:35:02.555Z,7.39
2022-09-23T19:40:07.635Z,7.27
2022-09-23T19:45:11.765Z,7.35
2022-09-23T19:50:17.088Z,7.43
2022-09-23T19:55:21.150Z,7.35
2022-09-23T20:00:25.169Z,7.35
2022-09-23T20:05:30.545Z,7.18
2022-09-23T20:10:34.516Z,7.12
2022-09-23T20:15:38.658Z,7.10
2022-09-23T20:20:55.075Z,6.95
2022-09-23T20:26:17.507Z,6.87
2022-09-23T20:31:22.571Z,6.67
2022-09-23T20:36:29.825Z,6.57
2022-09-23T20:41:37.501Z,6.64
2022-09-23T20:46:48.128Z,6.43
2022-09-23T20:51:53.974Z,6.37
2022-09-23T20:56:58.128Z,6.43
2022-09-23T21:02:02.142Z,6.21
2022-09-23T21:07:07.851Z,6.14
2022-09-23T21:12:11.777Z,5.97
2022-09-23T21:17:15.633Z,5.79
2022-09-23T21:22:20.867Z,5.94
2022-09-23T21:27:27.120Z,5.94
2022-09-23T21:32:31.292Z,5.82
2022-09-23T21:37:36.691Z,5.52
2022-09-23T21:42:40.546Z,5.60
2022-09-23T21:47:44.488Z,5.34
2022-09-23T21:52:51.986Z,5.17
2022-09-23T21:57:55.554Z,5.11
2022-09-23T22:02:59.366Z,4.97
2022-09-23T22:08:04.769Z,4.96
2022-09-23T22:13:12.792Z,4.84
2022-09-23T22:18:19.379Z,4.78
2022-09-23T22:23:24.704Z,4.76
2022-09-23T22:28:46.024Z,4.70
2022-09-23T22:33:51.037Z,4.67
2022-09-23T22:38:59.228Z,4.66
2022-09-23T22:44:03.863Z,4.50
2022-09-23T22:49:09.291Z,4.48
2022-09-23T22:54:15.428Z,4.35
2022-09-23T22:59:19.296Z,4.37
2022-09-23T23:04:23.137Z,4.21
2022-09-23T23:09:28.388Z,4.34
2022-09-23T23:14:32.585Z,4.29
2022-09-23T23:19:37.189Z,4.11
2022-09-23T23:24:42.416Z,4.19
2022-09-23T23:29:46.284Z,4.13
2022-09-23T23:34:50.122Z,4.00
2022-09-23T23:39:55.744Z,4.09
2022-09-23T23:44:59.967Z,3.93
2022-09-23T23:50:05.487Z,3.76
2022-09-23T23:55:11.139Z,3.67
